Edmonton International Airport


Codes: CYEG/YEG
Name: Edmonton International Airport
City: Edmonton
Country: Canada
Elevation: 2373 ft.
Website:
Wikipedia:

Photos at Edmonton International Airport


   Photos courtesy of SpottingLog. You can add your own sightings and photos by signing up for a free trial today.



No photos found.

Weather at Edmonton International Airport


Time (UTC)DescriptionTempratureWindCloud coverageVisibilityPressureHumidity
26-Jun-2024 00:00Light Rain17°C4 mph, W89%10000m1019hPa73%
26-Jun-2024 03:00Scattered Clouds16°C2 mph, S49%10000m1019hPa80%
26-Jun-2024 06:00Scattered Clouds11°C4 mph, S27%10000m1018hPa91%
26-Jun-2024 09:00Overcast Clouds10°C7 mph, SE100%10000m1018hPa93%
26-Jun-2024 12:00Overcast Clouds10°C7 mph, SE100%10000m1016hPa94%
26-Jun-2024 15:00Overcast Clouds15°C9 mph, SE100%10000m1015hPa75%
26-Jun-2024 18:00Overcast Clouds18°C13 mph, SE99%10000m1012hPa65%
26-Jun-2024 21:00Overcast Clouds20°C11 mph, SE89%10000m1010hPa59%
27-Jun-2024 00:00Overcast Clouds18°C9 mph, E95%10000m1007hPa73%
27-Jun-2024 03:00Overcast Clouds17°C11 mph, E100%10000m1006hPa75%
27-Jun-2024 06:00Light Rain15°C13 mph, E100%10000m1005hPa84%
27-Jun-2024 09:00Light Rain13°C13 mph, NE100%10000m1004hPa95%
27-Jun-2024 12:00Moderate Rain12°C13 mph, NE100%5281m1004hPa97%
27-Jun-2024 15:00Heavy Intensity Rain12°C13 mph, NE100%5393m1004hPa98%
27-Jun-2024 18:00Moderate Rain13°C16 mph, NE100%5941m1005hPa96%
27-Jun-2024 21:00Moderate Rain12°C11 mph, NE100%10000m1008hPa90%
28-Jun-2024 00:00Overcast Clouds15°C2 mph, N100%10000m1008hPa75%
28-Jun-2024 03:00Light Rain13°C2 mph, NW100%10000m1009hPa78%
28-Jun-2024 06:00Light Rain12°C7 mph, W96%10000m1011hPa88%
28-Jun-2024 09:00Few Clouds9°C4 mph, NW16%10000m1013hPa92%
28-Jun-2024 12:00Light Rain8°C7 mph, NW24%10000m1014hPa95%
28-Jun-2024 15:00Light Rain13°C7 mph, NW97%10000m1015hPa87%
28-Jun-2024 18:00Light Rain17°C4 mph, E85%8509m1014hPa63%
28-Jun-2024 21:00Light Rain18°C4 mph, SE15%10000m1014hPa61%
29-Jun-2024 00:00Light Rain18°C2 mph, SW36%8504m1014hPa67%
29-Jun-2024 03:00Light Rain14°C7 mph, SE18%10000m1014hPa86%
29-Jun-2024 06:00Light Rain9°C9 mph, SE12%10000m1016hPa95%
29-Jun-2024 09:00Clear Sky8°C9 mph, SE2%10000m1016hPa95%
29-Jun-2024 12:00Clear Sky8°C7 mph, SE2%10000m1016hPa94%
29-Jun-2024 15:00Clear Sky14°C7 mph, SE0%10000m1015hPa83%
29-Jun-2024 18:00Light Rain18°C7 mph, SE1%10000m1014hPa69%
29-Jun-2024 21:00Light Rain20°C11 mph, SE31%10000m1013hPa64%
30-Jun-2024 00:00Light Rain19°C9 mph, SE64%10000m1012hPa73%
30-Jun-2024 03:00Light Rain16°C9 mph, SE50%10000m1011hPa84%
30-Jun-2024 06:00Broken Clouds13°C11 mph, SE73%10000m1011hPa90%
30-Jun-2024 09:00Overcast Clouds11°C11 mph, SE100%10000m1010hPa88%
30-Jun-2024 12:00Overcast Clouds11°C9 mph, SE100%10000m1009hPa86%
30-Jun-2024 15:00Light Rain13°C9 mph, SE100%10000m1008hPa86%
30-Jun-2024 18:00Overcast Clouds18°C9 mph, SE100%10000m1007hPa73%
30-Jun-2024 21:00Light Rain20°C13 mph, SE100%10000m1005hPa69%